Terminal Aerodrome Forecast
Issued by NWS

Home | Current Version | Previous Version | Text Only | Print | Product List | Glossary On
Versions: 1 2 3 4 5 6 7 8 9 10 11 12 13 14 15 16 17 18 19 20 21
000
FTUS46 KSEW 162321
TAFOLM
TAF
KOLM 162321Z 1700/1724 25007KT P6SM SCT050
     FM170300 22006KT P6SM FEW030 BKN050
     FM170700 21004KT P6SM OVC015
     FM171200 VRB03KT 6SM BR OVC009
     FM171800 VRB03KT P6SM OVC012
     FM172000 31005KT P6SM SCT250=

USA.gov is the U.S. government's official web portal to all federal, state and local government web resources and services.